sensor_id;sensor_type;location;lat;lon;timestamp;P1;durP1;ratioP1;P2;durP2;ratioP2
6947;SDS011;3513;47.664;9.162;2023-09-12T00:00:15;26.90;;;18.80;;
6947;SDS011;3513;47.664;9.162;2023-09-12T00:02:41;26.27;;;18.17;;
6947;SDS011;3513;47.664;9.162;2023-09-12T00:05:07;27.60;;;20.20;;
6947;SDS011;3513;47.664;9.162;2023-09-12T00:07:34;32.67;;;19.40;;
6947;SDS011;3513;47.664;9.162;2023-09-12T00:10:01;26.20;;;18.97;;
6947;SDS011;3513;47.664;9.162;2023-09-12T00:12:27;30.40;;;18.57;;
6947;SDS011;3513;47.664;9.162;2023-09-12T00:14:54;35.37;;;18.43;;
6947;SDS011;3513;47.664;9.162;2023-09-12T00:17:19;34.50;;;19.30;;
6947;SDS011;3513;47.664;9.162;2023-09-12T00:19:45;22.90;;;18.70;;
6947;SDS011;3513;47.664;9.162;2023-09-12T00:22:11;24.70;;;18.60;;
6947;SDS011;3513;47.664;9.162;2023-09-12T00:24:36;31.30;;;18.50;;
6947;SDS011;3513;47.664;9.162;2023-09-12T00:27:03;29.50;;;18.33;;
6947;SDS011;3513;47.664;9.162;2023-09-12T00:29:29;24.80;;;19.60;;
6947;SDS011;3513;47.664;9.162;2023-09-12T00:31:55;28.17;;;20.20;;
6947;SDS011;3513;47.664;9.162;2023-09-12T00:34:21;25.70;;;19.50;;
6947;SDS011;3513;47.664;9.162;2023-09-12T00:36:47;23.37;;;19.97;;
6947;SDS011;3513;47.664;9.162;2023-09-12T00:39:12;20.20;;;17.70;;
6947;SDS011;3513;47.664;9.162;2023-09-12T00:41:38;23.70;;;18.93;;
6947;SDS011;3513;47.664;9.162;2023-09-12T00:44:03;26.70;;;20.40;;
6947;SDS011;3513;47.664;9.162;2023-09-12T00:46:29;26.40;;;19.03;;
6947;SDS011;3513;47.664;9.162;2023-09-12T00:48:56;25.47;;;19.60;;
6947;SDS011;3513;47.664;9.162;2023-09-12T00:51:24;23.43;;;19.47;;
6947;SDS011;3513;47.664;9.162;2023-09-12T00:53:51;24.17;;;19.43;;
6947;SDS011;3513;47.664;9.162;2023-09-12T00:56:16;23.33;;;17.73;;
6947;SDS011;3513;47.664;9.162;2023-09-12T00:58:42;24.13;;;18.77;;
6947;SDS011;3513;47.664;9.162;2023-09-12T01:01:10;27.10;;;19.00;;
6947;SDS011;3513;47.664;9.162;2023-09-12T01:03:36;23.80;;;18.20;;
6947;SDS011;3513;47.664;9.162;2023-09-12T01:06:01;27.60;;;17.87;;
6947;SDS011;3513;47.664;9.162;2023-09-12T01:08:27;22.33;;;18.23;;
6947;SDS011;3513;47.664;9.162;2023-09-12T01:10:53;23.50;;;18.33;;
6947;SDS011;3513;47.664;9.162;2023-09-12T01:13:22;27.07;;;20.40;;
6947;SDS011;3513;47.664;9.162;2023-09-12T01:15:48;28.30;;;18.60;;
6947;SDS011;3513;47.664;9.162;2023-09-12T01:18:14;25.07;;;19.03;;
6947;SDS011;3513;47.664;9.162;2023-09-12T01:20:40;27.17;;;20.93;;
6947;SDS011;3513;47.664;9.162;2023-09-12T01:29:04;31.90;;;20.50;;
6947;SDS011;3513;47.664;9.162;2023-09-12T01:31:32;26.10;;;19.23;;
6947;SDS011;3513;47.664;9.162;2023-09-12T01:34:11;29.33;;;19.40;;
6947;SDS011;3513;47.664;9.162;2023-09-12T01:36:38;25.33;;;18.40;;
6947;SDS011;3513;47.664;9.162;2023-09-12T01:39:03;28.00;;;20.17;;
6947;SDS011;3513;47.664;9.162;2023-09-12T01:41:29;22.97;;;19.33;;
6947;SDS011;3513;47.664;9.162;2023-09-12T01:43:56;25.20;;;20.07;;
6947;SDS011;3513;47.664;9.162;2023-09-12T01:46:24;29.67;;;19.37;;
6947;SDS011;3513;47.664;9.162;2023-09-12T01:48:51;26.53;;;19.70;;
6947;SDS011;3513;47.664;9.162;2023-09-12T01:51:20;23.90;;;18.70;;
6947;SDS011;3513;47.664;9.162;2023-09-12T01:53:49;22.47;;;18.37;;
6947;SDS011;3513;47.664;9.162;2023-09-12T01:56:15;29.83;;;19.27;;
6947;SDS011;3513;47.664;9.162;2023-09-12T01:58:42;36.97;;;19.67;;
6947;SDS011;3513;47.664;9.162;2023-09-12T02:01:08;29.20;;;21.77;;
6947;SDS011;3513;47.664;9.162;2023-09-12T02:03:34;26.07;;;17.00;;
6947;SDS011;3513;47.664;9.162;2023-09-12T02:06:00;26.73;;;19.03;;
6947;SDS011;3513;47.664;9.162;2023-09-12T02:08:25;24.77;;;18.37;;
6947;SDS011;3513;47.664;9.162;2023-09-12T02:10:51;32.00;;;20.50;;
6947;SDS011;3513;47.664;9.162;2023-09-12T02:13:17;24.27;;;18.57;;
6947;SDS011;3513;47.664;9.162;2023-09-12T02:15:42;30.37;;;20.10;;
6947;SDS011;3513;47.664;9.162;2023-09-12T02:18:11;23.37;;;19.10;;
6947;SDS011;3513;47.664;9.162;2023-09-12T02:20:40;24.93;;;19.83;;
6947;SDS011;3513;47.664;9.162;2023-09-12T02:23:09;29.73;;;20.60;;
6947;SDS011;3513;47.664;9.162;2023-09-12T02:25:35;24.03;;;18.33;;
6947;SDS011;3513;47.664;9.162;2023-09-12T02:28:01;37.07;;;20.90;;
6947;SDS011;3513;47.664;9.162;2023-09-12T02:30:27;33.43;;;20.07;;
6947;SDS011;3513;47.664;9.162;2023-09-12T02:32:53;31.67;;;19.80;;
6947;SDS011;3513;47.664;9.162;2023-09-12T02:35:18;31.00;;;19.90;;
6947;SDS011;3513;47.664;9.162;2023-09-12T02:37:44;27.80;;;20.37;;
6947;SDS011;3513;47.664;9.162;2023-09-12T02:40:10;24.90;;;19.70;;
6947;SDS011;3513;47.664;9.162;2023-09-12T02:42:36;32.33;;;21.17;;
6947;SDS011;3513;47.664;9.162;2023-09-12T02:45:03;31.20;;;21.13;;
6947;SDS011;3513;47.664;9.162;2023-09-12T02:47:29;35.00;;;21.30;;
6947;SDS011;3513;47.664;9.162;2023-09-12T02:49:55;29.53;;;20.97;;
6947;SDS011;3513;47.664;9.162;2023-09-12T02:52:20;33.20;;;20.83;;
6947;SDS011;3513;47.664;9.162;2023-09-12T02:54:46;29.17;;;22.03;;
6947;SDS011;3513;47.664;9.162;2023-09-12T02:57:11;25.70;;;20.47;;
6947;SDS011;3513;47.664;9.162;2023-09-12T02:59:37;26.83;;;22.27;;
6947;SDS011;3513;47.664;9.162;2023-09-12T03:02:05;35.37;;;23.17;;
6947;SDS011;3513;47.664;9.162;2023-09-12T03:04:33;26.50;;;21.63;;
6947;SDS011;3513;47.664;9.162;2023-09-12T03:07:00;29.93;;;21.50;;
6947;SDS011;3513;47.664;9.162;2023-09-12T03:09:25;32.97;;;21.83;;
6947;SDS011;3513;47.664;9.162;2023-09-12T03:11:51;30.00;;;23.57;;
6947;SDS011;3513;47.664;9.162;2023-09-12T03:14:17;31.80;;;23.30;;
6947;SDS011;3513;47.664;9.162;2023-09-12T03:16:42;41.03;;;22.47;;
6947;SDS011;3513;47.664;9.162;2023-09-12T03:19:08;31.80;;;22.33;;
6947;SDS011;3513;47.664;9.162;2023-09-12T03:21:33;31.60;;;20.90;;
6947;SDS011;3513;47.664;9.162;2023-09-12T03:23:59;31.63;;;21.23;;
6947;SDS011;3513;47.664;9.162;2023-09-12T03:26:25;33.50;;;21.93;;
6947;SDS011;3513;47.664;9.162;2023-09-12T03:28:51;29.80;;;22.70;;
6947;SDS011;3513;47.664;9.162;2023-09-12T03:31:17;32.73;;;22.10;;
6947;SDS011;3513;47.664;9.162;2023-09-12T03:33:43;29.93;;;21.73;;
6947;SDS011;3513;47.664;9.162;2023-09-12T03:36:15;31.10;;;22.33;;
6947;SDS011;3513;47.664;9.162;2023-09-12T03:38:42;32.07;;;22.10;;
6947;SDS011;3513;47.664;9.162;2023-09-12T03:41:08;33.27;;;21.77;;
6947;SDS011;3513;47.664;9.162;2023-09-12T03:43:33;33.07;;;23.23;;
6947;SDS011;3513;47.664;9.162;2023-09-12T03:45:59;33.37;;;22.40;;
6947;SDS011;3513;47.664;9.162;2023-09-12T03:48:25;33.00;;;22.23;;
6947;SDS011;3513;47.664;9.162;2023-09-12T03:50:51;29.97;;;20.60;;
6947;SDS011;3513;47.664;9.162;2023-09-12T03:53:16;30.97;;;24.37;;
6947;SDS011;3513;47.664;9.162;2023-09-12T03:55:42;27.17;;;21.90;;
6947;SDS011;3513;47.664;9.162;2023-09-12T03:58:08;30.93;;;22.10;;
6947;SDS011;3513;47.664;9.162;2023-09-12T04:00:34;29.30;;;23.30;;
6947;SDS011;3513;47.664;9.162;2023-09-12T04:02:59;30.20;;;22.77;;
6947;SDS011;3513;47.664;9.162;2023-09-12T04:05:25;34.30;;;22.90;;
6947;SDS011;3513;47.664;9.162;2023-09-12T04:07:51;30.20;;;22.97;;
6947;SDS011;3513;47.664;9.162;2023-09-12T04:10:17;33.90;;;23.60;;
6947;SDS011;3513;47.664;9.162;2023-09-12T04:12:45;30.87;;;24.57;;
6947;SDS011;3513;47.664;9.162;2023-09-12T04:15:11;30.40;;;23.70;;
6947;SDS011;3513;47.664;9.162;2023-09-12T04:17:36;36.30;;;24.03;;
6947;SDS011;3513;47.664;9.162;2023-09-12T04:20:02;31.17;;;25.00;;
6947;SDS011;3513;47.664;9.162;2023-09-12T04:22:29;34.50;;;24.83;;
6947;SDS011;3513;47.664;9.162;2023-09-12T04:24:55;34.43;;;24.10;;
6947;SDS011;3513;47.664;9.162;2023-09-12T04:27:21;45.97;;;26.17;;
6947;SDS011;3513;47.664;9.162;2023-09-12T04:29:47;33.10;;;22.63;;
6947;SDS011;3513;47.664;9.162;2023-09-12T04:32:12;37.17;;;26.20;;
6947;SDS011;3513;47.664;9.162;2023-09-12T04:34:44;31.13;;;23.30;;
6947;SDS011;3513;47.664;9.162;2023-09-12T04:37:10;38.90;;;23.17;;
6947;SDS011;3513;47.664;9.162;2023-09-12T04:39:35;33.00;;;24.43;;
6947;SDS011;3513;47.664;9.162;2023-09-12T04:42:07;34.73;;;24.17;;
6947;SDS011;3513;47.664;9.162;2023-09-12T04:44:38;38.03;;;24.70;;
6947;SDS011;3513;47.664;9.162;2023-09-12T04:47:05;34.80;;;26.07;;
6947;SDS011;3513;47.664;9.162;2023-09-12T04:49:32;32.80;;;24.07;;
6947;SDS011;3513;47.664;9.162;2023-09-12T04:51:57;34.17;;;24.83;;
6947;SDS011;3513;47.664;9.162;2023-09-12T04:54:23;33.90;;;23.73;;
6947;SDS011;3513;47.664;9.162;2023-09-12T04:56:54;34.73;;;22.53;;
6947;SDS011;3513;47.664;9.162;2023-09-12T04:59:20;30.30;;;21.43;;
6947;SDS011;3513;47.664;9.162;2023-09-12T05:01:48;30.30;;;22.13;;
6947;SDS011;3513;47.664;9.162;2023-09-12T05:04:16;31.80;;;23.90;;
6947;SDS011;3513;47.664;9.162;2023-09-12T05:06:47;29.43;;;22.40;;
6947;SDS011;3513;47.664;9.162;2023-09-12T05:09:12;32.97;;;24.07;;
6947;SDS011;3513;47.664;9.162;2023-09-12T05:11:38;32.70;;;22.83;;
6947;SDS011;3513;47.664;9.162;2023-09-12T05:14:04;27.03;;;20.80;;
6947;SDS011;3513;47.664;9.162;2023-09-12T05:16:32;33.50;;;22.67;;
6947;SDS011;3513;47.664;9.162;2023-09-12T05:18:58;33.83;;;23.03;;
6947;SDS011;3513;47.664;9.162;2023-09-12T05:21:23;35.43;;;25.67;;
6947;SDS011;3513;47.664;9.162;2023-09-12T05:23:49;33.83;;;24.17;;
6947;SDS011;3513;47.664;9.162;2023-09-12T05:26:15;30.90;;;22.50;;
6947;SDS011;3513;47.664;9.162;2023-09-12T05:28:41;39.20;;;24.03;;
6947;SDS011;3513;47.664;9.162;2023-09-12T05:31:06;31.00;;;22.60;;
6947;SDS011;3513;47.664;9.162;2023-09-12T05:33:34;40.33;;;22.83;;
6947;SDS011;3513;47.664;9.162;2023-09-12T05:36:00;39.20;;;24.43;;
6947;SDS011;3513;47.664;9.162;2023-09-12T05:38:26;38.47;;;23.30;;
6947;SDS011;3513;47.664;9.162;2023-09-12T05:40:51;41.93;;;24.43;;
6947;SDS011;3513;47.664;9.162;2023-09-12T05:43:18;33.70;;;23.37;;
6947;SDS011;3513;47.664;9.162;2023-09-12T05:45:43;36.40;;;24.30;;
6947;SDS011;3513;47.664;9.162;2023-09-12T05:48:09;30.50;;;23.47;;
6947;SDS011;3513;47.664;9.162;2023-09-12T05:50:36;29.53;;;23.10;;
6947;SDS011;3513;47.664;9.162;2023-09-12T05:53:02;41.43;;;24.30;;
6947;SDS011;3513;47.664;9.162;2023-09-12T05:55:28;35.37;;;22.83;;
6947;SDS011;3513;47.664;9.162;2023-09-12T05:57:54;38.87;;;23.67;;
6947;SDS011;3513;47.664;9.162;2023-09-12T06:00:20;31.17;;;24.57;;
6947;SDS011;3513;47.664;9.162;2023-09-12T06:02:46;31.10;;;23.70;;
6947;SDS011;3513;47.664;9.162;2023-09-12T06:05:12;39.33;;;25.77;;
6947;SDS011;3513;47.664;9.162;2023-09-12T06:07:37;31.87;;;24.77;;
6947;SDS011;3513;47.664;9.162;2023-09-12T06:10:05;40.73;;;22.70;;
6947;SDS011;3513;47.664;9.162;2023-09-12T06:12:31;34.73;;;24.10;;
6947;SDS011;3513;47.664;9.162;2023-09-12T06:14:58;36.53;;;24.17;;
6947;SDS011;3513;47.664;9.162;2023-09-12T06:17:24;45.53;;;26.73;;
6947;SDS011;3513;47.664;9.162;2023-09-12T06:19:49;33.60;;;24.63;;
6947;SDS011;3513;47.664;9.162;2023-09-12T06:22:16;30.80;;;25.30;;
6947;SDS011;3513;47.664;9.162;2023-09-12T06:24:42;40.17;;;24.80;;
6947;SDS011;3513;47.664;9.162;2023-09-12T06:27:08;30.50;;;22.97;;
6947;SDS011;3513;47.664;9.162;2023-09-12T06:29:37;35.53;;;24.97;;
6947;SDS011;3513;47.664;9.162;2023-09-12T06:32:03;29.63;;;23.00;;
6947;SDS011;3513;47.664;9.162;2023-09-12T06:34:29;34.70;;;23.17;;
6947;SDS011;3513;47.664;9.162;2023-09-12T06:36:54;37.40;;;23.67;;
6947;SDS011;3513;47.664;9.162;2023-09-12T06:39:20;35.90;;;23.63;;
6947;SDS011;3513;47.664;9.162;2023-09-12T06:41:46;34.80;;;23.70;;
6947;SDS011;3513;47.664;9.162;2023-09-12T06:44:11;37.57;;;23.93;;
6947;SDS011;3513;47.664;9.162;2023-09-12T06:46:37;33.57;;;23.77;;
6947;SDS011;3513;47.664;9.162;2023-09-12T06:49:03;41.33;;;25.63;;
6947;SDS011;3513;47.664;9.162;2023-09-12T06:51:29;33.97;;;23.70;;
6947;SDS011;3513;47.664;9.162;2023-09-12T06:53:55;36.00;;;23.87;;
6947;SDS011;3513;47.664;9.162;2023-09-12T06:56:20;44.13;;;27.20;;
6947;SDS011;3513;47.664;9.162;2023-09-12T06:58:46;36.93;;;25.00;;
6947;SDS011;3513;47.664;9.162;2023-09-12T07:01:13;44.97;;;27.10;;
6947;SDS011;3513;47.664;9.162;2023-09-12T07:03:39;45.03;;;25.57;;
6947;SDS011;3513;47.664;9.162;2023-09-12T07:06:04;39.50;;;24.30;;
6947;SDS011;3513;47.664;9.162;2023-09-12T07:08:30;40.80;;;25.30;;
6947;SDS011;3513;47.664;9.162;2023-09-12T07:10:57;40.83;;;25.30;;
6947;SDS011;3513;47.664;9.162;2023-09-12T07:13:23;42.83;;;24.27;;
6947;SDS011;3513;47.664;9.162;2023-09-12T07:15:49;37.23;;;26.63;;
6947;SDS011;3513;47.664;9.162;2023-09-12T07:18:16;40.57;;;27.43;;
6947;SDS011;3513;47.664;9.162;2023-09-12T07:20:41;33.37;;;26.23;;
6947;SDS011;3513;47.664;9.162;2023-09-12T07:23:07;31.63;;;24.20;;
6947;SDS011;3513;47.664;9.162;2023-09-12T07:25:41;30.47;;;22.77;;
6947;SDS011;3513;47.664;9.162;2023-09-12T07:28:07;38.60;;;23.83;;
6947;SDS011;3513;47.664;9.162;2023-09-12T07:30:33;30.17;;;22.33;;
6947;SDS011;3513;47.664;9.162;2023-09-12T07:32:59;32.10;;;23.63;;
6947;SDS011;3513;47.664;9.162;2023-09-12T07:35:24;29.13;;;22.50;;
6947;SDS011;3513;47.664;9.162;2023-09-12T07:37:50;39.03;;;24.23;;
6947;SDS011;3513;47.664;9.162;2023-09-12T07:40:16;35.17;;;21.97;;
6947;SDS011;3513;47.664;9.162;2023-09-12T07:42:41;32.20;;;21.90;;
6947;SDS011;3513;47.664;9.162;2023-09-12T07:45:08;25.57;;;21.30;;
6947;SDS011;3513;47.664;9.162;2023-09-12T07:47:34;32.80;;;21.03;;
6947;SDS011;3513;47.664;9.162;2023-09-12T07:49:59;26.67;;;21.90;;
6947;SDS011;3513;47.664;9.162;2023-09-12T07:52:26;37.50;;;21.57;;
6947;SDS011;3513;47.664;9.162;2023-09-12T07:54:52;27.73;;;21.27;;
6947;SDS011;3513;47.664;9.162;2023-09-12T07:57:25;30.20;;;20.53;;
6947;SDS011;3513;47.664;9.162;2023-09-12T07:59:59;25.33;;;18.40;;
6947;SDS011;3513;47.664;9.162;2023-09-12T08:02:35;32.87;;;20.80;;
6947;SDS011;3513;47.664;9.162;2023-09-12T08:05:01;28.33;;;21.67;;
6947;SDS011;3513;47.664;9.162;2023-09-12T08:07:26;32.07;;;20.73;;
6947;SDS011;3513;47.664;9.162;2023-09-12T08:09:53;29.23;;;21.20;;
6947;SDS011;3513;47.664;9.162;2023-09-12T08:12:26;24.60;;;19.67;;
6947;SDS011;3513;47.664;9.162;2023-09-12T08:14:53;27.00;;;20.40;;
6947;SDS011;3513;47.664;9.162;2023-09-12T08:17:19;30.87;;;20.00;;
6947;SDS011;3513;47.664;9.162;2023-09-12T08:19:45;24.90;;;19.80;;
6947;SDS011;3513;47.664;9.162;2023-09-12T08:22:16;25.00;;;21.03;;
6947;SDS011;3513;47.664;9.162;2023-09-12T08:24:43;29.60;;;19.67;;
6947;SDS011;3513;47.664;9.162;2023-09-12T08:27:12;26.10;;;20.27;;
6947;SDS011;3513;47.664;9.162;2023-09-12T08:29:38;28.00;;;20.93;;
6947;SDS011;3513;47.664;9.162;2023-09-12T08:32:04;35.80;;;21.40;;
6947;SDS011;3513;47.664;9.162;2023-09-12T08:34:30;29.93;;;19.80;;
6947;SDS011;3513;47.664;9.162;2023-09-12T08:36:55;28.43;;;19.13;;
6947;SDS011;3513;47.664;9.162;2023-09-12T08:39:25;30.87;;;19.97;;
6947;SDS011;3513;47.664;9.162;2023-09-12T08:42:04;26.70;;;19.07;;
6947;SDS011;3513;47.664;9.162;2023-09-12T08:44:34;26.30;;;20.07;;
6947;SDS011;3513;47.664;9.162;2023-09-12T08:47:00;32.73;;;22.00;;
6947;SDS011;3513;47.664;9.162;2023-09-12T08:49:26;24.83;;;21.33;;
6947;SDS011;3513;47.664;9.162;2023-09-12T08:51:53;34.03;;;20.73;;
6947;SDS011;3513;47.664;9.162;2023-09-12T08:54:19;28.70;;;21.60;;
6947;SDS011;3513;47.664;9.162;2023-09-12T08:56:44;33.93;;;18.53;;
6947;SDS011;3513;47.664;9.162;2023-09-12T08:59:25;22.77;;;18.30;;
6947;SDS011;3513;47.664;9.162;2023-09-12T09:01:54;28.03;;;17.90;;
6947;SDS011;3513;47.664;9.162;2023-09-12T09:04:22;26.80;;;17.63;;
6947;SDS011;3513;47.664;9.162;2023-09-12T09:06:48;23.70;;;17.70;;
6947;SDS011;3513;47.664;9.162;2023-09-12T09:09:15;22.47;;;17.00;;
6947;SDS011;3513;47.664;9.162;2023-09-12T09:11:42;32.63;;;17.50;;
6947;SDS011;3513;47.664;9.162;2023-09-12T09:14:07;25.50;;;17.37;;
6947;SDS011;3513;47.664;9.162;2023-09-12T09:16:33;23.87;;;17.23;;
6947;SDS011;3513;47.664;9.162;2023-09-12T09:19:01;28.83;;;16.70;;
6947;SDS011;3513;47.664;9.162;2023-09-12T09:21:31;22.93;;;18.23;;
6947;SDS011;3513;47.664;9.162;2023-09-12T09:23:59;25.77;;;18.00;;
6947;SDS011;3513;47.664;9.162;2023-09-12T09:29:15;20.00;;;16.47;;
6947;SDS011;3513;47.664;9.162;2023-09-12T09:31:43;27.93;;;17.27;;
6947;SDS011;3513;47.664;9.162;2023-09-12T09:34:19;23.87;;;17.90;;
6947;SDS011;3513;47.664;9.162;2023-09-12T09:39:12;24.80;;;18.30;;
6947;SDS011;3513;47.664;9.162;2023-09-12T09:41:38;23.13;;;15.93;;
6947;SDS011;3513;47.664;9.162;2023-09-12T09:44:05;20.27;;;15.90;;
6947;SDS011;3513;47.664;9.162;2023-09-12T09:46:32;19.80;;;15.60;;
6947;SDS011;3513;47.664;9.162;2023-09-12T09:48:58;24.57;;;15.90;;
6947;SDS011;3513;47.664;9.162;2023-09-12T09:51:24;24.77;;;17.17;;
6947;SDS011;3513;47.664;9.162;2023-09-12T09:53:51;26.67;;;18.70;;
6947;SDS011;3513;47.664;9.162;2023-09-12T09:56:17;19.17;;;15.63;;
6947;SDS011;3513;47.664;9.162;2023-09-12T09:58:47;22.27;;;16.30;;
6947;SDS011;3513;47.664;9.162;2023-09-12T10:01:28;27.53;;;17.77;;
6947;SDS011;3513;47.664;9.162;2023-09-12T10:04:01;24.13;;;16.03;;
6947;SDS011;3513;47.664;9.162;2023-09-12T10:06:28;24.90;;;17.10;;
6947;SDS011;3513;47.664;9.162;2023-09-12T10:08:54;21.93;;;16.50;;
6947;SDS011;3513;47.664;9.162;2023-09-12T10:11:22;22.83;;;16.50;;
6947;SDS011;3513;47.664;9.162;2023-09-12T10:13:51;30.37;;;19.17;;
6947;SDS011;3513;47.664;9.162;2023-09-12T10:16:19;19.10;;;16.07;;
6947;SDS011;3513;47.664;9.162;2023-09-12T10:18:56;29.50;;;17.43;;
6947;SDS011;3513;47.664;9.162;2023-09-12T10:21:28;24.90;;;19.30;;
6947;SDS011;3513;47.664;9.162;2023-09-12T10:23:59;29.07;;;16.37;;
6947;SDS011;3513;47.664;9.162;2023-09-12T10:26:25;25.93;;;17.97;;
6947;SDS011;3513;47.664;9.162;2023-09-12T10:28:51;21.27;;;16.10;;
6947;SDS011;3513;47.664;9.162;2023-09-12T10:31:18;22.00;;;16.40;;
6947;SDS011;3513;47.664;9.162;2023-09-12T10:33:44;17.93;;;14.80;;
6947;SDS011;3513;47.664;9.162;2023-09-12T10:36:11;22.93;;;16.73;;
6947;SDS011;3513;47.664;9.162;2023-09-12T10:38:42;28.23;;;16.77;;
6947;SDS011;3513;47.664;9.162;2023-09-12T10:41:12;25.57;;;16.80;;
6947;SDS011;3513;47.664;9.162;2023-09-12T10:43:39;23.30;;;15.47;;
6947;SDS011;3513;47.664;9.162;2023-09-12T10:46:06;21.37;;;15.27;;
6947;SDS011;3513;47.664;9.162;2023-09-12T10:48:32;34.43;;;16.00;;
6947;SDS011;3513;47.664;9.162;2023-09-12T10:51:05;16.40;;;14.47;;
6947;SDS011;3513;47.664;9.162;2023-09-12T10:53:32;20.67;;;16.10;;
6947;SDS011;3513;47.664;9.162;2023-09-12T10:56:15;23.90;;;17.00;;
6947;SDS011;3513;47.664;9.162;2023-09-12T11:01:34;20.67;;;15.53;;
6947;SDS011;3513;47.664;9.162;2023-09-12T11:06:48;21.23;;;16.30;;
6947;SDS011;3513;47.664;9.162;2023-09-12T11:11:49;21.97;;;15.47;;
6947;SDS011;3513;47.664;9.162;2023-09-12T11:14:30;25.63;;;14.53;;
6947;SDS011;3513;47.664;9.162;2023-09-12T11:19:42;18.87;;;15.30;;
6947;SDS011;3513;47.664;9.162;2023-09-12T11:22:47;18.13;;;14.07;;
6947;SDS011;3513;47.664;9.162;2023-09-12T11:25:21;20.43;;;13.90;;
6947;SDS011;3513;47.664;9.162;2023-09-12T11:30:17;21.77;;;14.70;;
6947;SDS011;3513;47.664;9.162;2023-09-12T11:32:46;21.07;;;12.67;;
6947;SDS011;3513;47.664;9.162;2023-09-12T11:35:14;15.47;;;13.50;;
6947;SDS011;3513;47.664;9.162;2023-09-12T11:37:40;19.50;;;14.23;;
6947;SDS011;3513;47.664;9.162;2023-09-12T11:42:39;19.67;;;15.07;;
6947;SDS011;3513;47.664;9.162;2023-09-12T11:45:08;18.80;;;14.40;;
6947;SDS011;3513;47.664;9.162;2023-09-12T11:47:44;20.50;;;15.23;;
6947;SDS011;3513;47.664;9.162;2023-09-12T11:50:29;22.03;;;14.43;;
6947;SDS011;3513;47.664;9.162;2023-09-12T11:53:05;21.70;;;13.70;;
6947;SDS011;3513;47.664;9.162;2023-09-12T11:55:43;16.97;;;14.00;;
6947;SDS011;3513;47.664;9.162;2023-09-12T11:58:10;21.17;;;12.87;;
6947;SDS011;3513;47.664;9.162;2023-09-12T12:00:36;20.67;;;13.20;;
6947;SDS011;3513;47.664;9.162;2023-09-12T12:03:02;18.93;;;13.40;;
6947;SDS011;3513;47.664;9.162;2023-09-12T12:05:29;18.73;;;13.40;;
6947;SDS011;3513;47.664;9.162;2023-09-12T12:07:55;26.90;;;14.63;;
6947;SDS011;3513;47.664;9.162;2023-09-12T12:10:20;15.23;;;13.63;;
6947;SDS011;3513;47.664;9.162;2023-09-12T12:12:52;16.13;;;12.63;;
6947;SDS011;3513;47.664;9.162;2023-09-12T12:15:18;19.50;;;14.77;;
6947;SDS011;3513;47.664;9.162;2023-09-12T12:17:43;17.23;;;13.60;;
6947;SDS011;3513;47.664;9.162;2023-09-12T12:20:09;21.20;;;13.70;;
6947;SDS011;3513;47.664;9.162;2023-09-12T12:22:39;18.33;;;14.43;;
6947;SDS011;3513;47.664;9.162;2023-09-12T12:25:09;20.30;;;15.00;;
6947;SDS011;3513;47.664;9.162;2023-09-12T12:27:38;17.20;;;13.87;;
6947;SDS011;3513;47.664;9.162;2023-09-12T12:30:08;17.27;;;13.40;;
6947;SDS011;3513;47.664;9.162;2023-09-12T12:32:41;19.70;;;14.50;;
6947;SDS011;3513;47.664;9.162;2023-09-12T12:35:09;15.73;;;12.80;;
6947;SDS011;3513;47.664;9.162;2023-09-12T12:37:36;23.83;;;14.50;;
6947;SDS011;3513;47.664;9.162;2023-09-12T12:40:02;15.40;;;13.17;;
6947;SDS011;3513;47.664;9.162;2023-09-12T12:42:34;19.33;;;14.43;;
6947;SDS011;3513;47.664;9.162;2023-09-12T12:45:05;15.10;;;12.87;;
6947;SDS011;3513;47.664;9.162;2023-09-12T12:47:37;20.63;;;14.10;;
6947;SDS011;3513;47.664;9.162;2023-09-12T12:50:07;14.40;;;11.37;;
6947;SDS011;3513;47.664;9.162;2023-09-12T12:52:36;20.23;;;13.03;;
6947;SDS011;3513;47.664;9.162;2023-09-12T12:55:03;21.13;;;13.80;;
6947;SDS011;3513;47.664;9.162;2023-09-12T12:57:30;14.53;;;12.37;;
6947;SDS011;3513;47.664;9.162;2023-09-12T12:59:55;18.33;;;12.43;;
6947;SDS011;3513;47.664;9.162;2023-09-12T13:02:22;17.60;;;11.40;;
6947;SDS011;3513;47.664;9.162;2023-09-12T13:04:48;19.23;;;13.70;;
6947;SDS011;3513;47.664;9.162;2023-09-12T13:07:14;20.63;;;11.77;;
6947;SDS011;3513;47.664;9.162;2023-09-12T13:09:40;22.30;;;12.80;;
6947;SDS011;3513;47.664;9.162;2023-09-12T13:12:05;25.83;;;16.10;;
6947;SDS011;3513;47.664;9.162;2023-09-12T13:14:31;14.40;;;12.90;;
6947;SDS011;3513;47.664;9.162;2023-09-12T13:16:57;20.40;;;10.93;;
6947;SDS011;3513;47.664;9.162;2023-09-12T13:19:24;15.00;;;11.40;;
6947;SDS011;3513;47.664;9.162;2023-09-12T13:21:50;17.77;;;11.40;;
6947;SDS011;3513;47.664;9.162;2023-09-12T13:24:15;14.00;;;12.47;;
6947;SDS011;3513;47.664;9.162;2023-09-12T13:26:41;13.23;;;11.73;;
6947;SDS011;3513;47.664;9.162;2023-09-12T13:29:07;16.07;;;11.57;;
6947;SDS011;3513;47.664;9.162;2023-09-12T13:31:32;13.10;;;11.23;;
6947;SDS011;3513;47.664;9.162;2023-09-12T13:33:58;23.03;;;12.30;;
6947;SDS011;3513;47.664;9.162;2023-09-12T13:36:23;17.83;;;11.50;;
6947;SDS011;3513;47.664;9.162;2023-09-12T13:38:49;18.67;;;11.47;;
6947;SDS011;3513;47.664;9.162;2023-09-12T13:41:16;17.60;;;12.07;;
6947;SDS011;3513;47.664;9.162;2023-09-12T13:43:42;16.53;;;11.77;;
6947;SDS011;3513;47.664;9.162;2023-09-12T13:46:10;14.80;;;11.13;;
6947;SDS011;3513;47.664;9.162;2023-09-12T13:48:35;13.90;;;10.47;;
6947;SDS011;3513;47.664;9.162;2023-09-12T13:51:01;15.80;;;12.97;;
6947;SDS011;3513;47.664;9.162;2023-09-12T13:53:27;11.60;;;9.80;;
6947;SDS011;3513;47.664;9.162;2023-09-12T13:55:53;12.70;;;11.13;;
6947;SDS011;3513;47.664;9.162;2023-09-12T13:58:18;14.33;;;12.10;;
6947;SDS011;3513;47.664;9.162;2023-09-12T14:00:44;22.13;;;12.27;;
6947;SDS011;3513;47.664;9.162;2023-09-12T14:03:10;24.23;;;12.27;;
6947;SDS011;3513;47.664;9.162;2023-09-12T14:05:35;18.23;;;11.90;;
6947;SDS011;3513;47.664;9.162;2023-09-12T14:08:01;18.57;;;11.77;;
6947;SDS011;3513;47.664;9.162;2023-09-12T14:10:26;18.87;;;13.07;;
6947;SDS011;3513;47.664;9.162;2023-09-12T14:12:52;21.40;;;11.90;;
6947;SDS011;3513;47.664;9.162;2023-09-12T14:15:17;24.90;;;11.57;;
6947;SDS011;3513;47.664;9.162;2023-09-12T14:17:43;13.30;;;11.90;;
6947;SDS011;3513;47.664;9.162;2023-09-12T14:20:09;18.80;;;12.37;;
6947;SDS011;3513;47.664;9.162;2023-09-12T14:22:36;19.17;;;13.67;;
6947;SDS011;3513;47.664;9.162;2023-09-12T14:25:01;24.17;;;11.80;;
6947;SDS011;3513;47.664;9.162;2023-09-12T14:27:27;17.27;;;12.13;;
6947;SDS011;3513;47.664;9.162;2023-09-12T14:29:53;23.70;;;11.53;;
6947;SDS011;3513;47.664;9.162;2023-09-12T14:32:18;22.93;;;13.13;;
6947;SDS011;3513;47.664;9.162;2023-09-12T14:34:44;19.90;;;11.90;;
6947;SDS011;3513;47.664;9.162;2023-09-12T14:37:10;16.00;;;12.60;;
6947;SDS011;3513;47.664;9.162;2023-09-12T14:39:36;22.63;;;13.17;;
6947;SDS011;3513;47.664;9.162;2023-09-12T14:42:02;14.50;;;12.60;;
6947;SDS011;3513;47.664;9.162;2023-09-12T14:44:33;21.93;;;12.80;;
6947;SDS011;3513;47.664;9.162;2023-09-12T14:46:58;21.90;;;13.90;;
6947;SDS011;3513;47.664;9.162;2023-09-12T14:49:24;21.63;;;13.30;;
6947;SDS011;3513;47.664;9.162;2023-09-12T14:51:50;17.80;;;12.80;;
6947;SDS011;3513;47.664;9.162;2023-09-12T14:54:16;23.57;;;10.47;;
6947;SDS011;3513;47.664;9.162;2023-09-12T14:56:42;21.83;;;8.53;;
6947;SDS011;3513;47.664;9.162;2023-09-12T14:59:07;14.43;;;4.90;;
6947;SDS011;3513;47.664;9.162;2023-09-12T15:01:33;12.40;;;3.97;;
6947;SDS011;3513;47.664;9.162;2023-09-12T15:04:00;4.20;;;3.87;;
6947;SDS011;3513;47.664;9.162;2023-09-12T15:06:26;6.60;;;3.53;;
6947;SDS011;3513;47.664;9.162;2023-09-12T15:08:52;9.93;;;3.90;;
6947;SDS011;3513;47.664;9.162;2023-09-12T15:11:18;9.07;;;3.20;;
6947;SDS011;3513;47.664;9.162;2023-09-12T15:13:44;5.07;;;2.50;;